createdAt,value
2018-04-16T00:00:25.157Z,12.03
2018-04-16T00:02:52.662Z,13.97
2018-04-16T00:05:20.159Z,13.30
2018-04-16T00:07:47.745Z,12.27
2018-04-16T00:10:15.259Z,13.20
2018-04-16T00:12:42.764Z,13.33
2018-04-16T00:15:10.543Z,12.03
2018-04-16T00:17:38.159Z,13.40
2018-04-16T00:20:05.795Z,13.10
2018-04-16T00:22:34.086Z,12.90
2018-04-16T00:25:03.521Z,12.90
2018-04-16T00:27:31.032Z,14.53
2018-04-16T00:29:58.538Z,14.70
2018-04-16T00:32:31.696Z,13.10
2018-04-16T00:35:04.845Z,14.40
2018-04-16T00:37:38.375Z,13.83
2018-04-16T00:40:11.557Z,13.33
2018-04-16T00:42:44.831Z,15.07
2018-04-16T00:45:17.927Z,14.03
2018-04-16T00:47:51.021Z,14.00
2018-04-16T00:53:24.989Z,14.23
2018-04-16T00:56:09.973Z,14.30
2018-04-16T00:58:43.281Z,15.23
2018-04-16T01:01:16.435Z,13.30
2018-04-16T01:03:49.725Z,15.73
2018-04-16T01:06:23.849Z,14.80
2018-04-16T01:08:57.904Z,14.80
2018-04-16T01:11:31.210Z,14.40
2018-04-16T01:14:04.534Z,14.53
2018-04-16T01:16:46.926Z,14.77
2018-04-16T01:19:20.077Z,13.80
2018-04-16T01:21:53.228Z,14.80
2018-04-16T01:24:27.311Z,14.23
2018-04-16T01:27:01.025Z,14.23
2018-04-16T01:29:34.180Z,15.00
2018-04-16T01:32:07.308Z,13.60
2018-04-16T01:34:41.138Z,13.77
2018-04-16T01:37:15.240Z,15.77
2018-04-16T01:39:48.402Z,15.20
2018-04-16T01:42:21.521Z,14.60
2018-04-16T01:44:54.799Z,15.27
2018-04-16T01:47:28.005Z,14.27
2018-04-16T01:50:01.346Z,14.93
2018-04-16T01:52:34.569Z,14.60
2018-04-16T01:55:07.851Z,15.17
2018-04-16T01:57:41.083Z,14.00
2018-04-16T02:00:14.211Z,14.67
2018-04-16T02:02:47.468Z,14.47
2018-04-16T02:05:20.716Z,14.50
2018-04-16T02:07:53.821Z,15.00
2018-04-16T02:10:27.166Z,17.03
2018-04-16T02:13:01.261Z,16.10
2018-04-16T02:15:35.239Z,16.47
2018-04-16T02:18:20.597Z,15.70
2018-04-16T02:20:53.825Z,15.70
2018-04-16T02:23:27.117Z,15.30
2018-04-16T02:26:00.401Z,14.53
2018-04-16T02:28:33.742Z,15.30
2018-04-16T02:31:07.714Z,16.77
2018-04-16T02:33:41.061Z,16.00
2018-04-16T02:39:13.139Z,16.40
2018-04-16T02:41:46.230Z,15.10
2018-04-16T02:44:19.424Z,16.90
2018-04-16T02:46:52.539Z,16.43
2018-04-16T02:49:25.815Z,15.50
2018-04-16T02:51:59.189Z,15.40
2018-04-16T02:54:33.295Z,16.37
2018-04-16T02:57:07.293Z,16.10
2018-04-16T02:59:40.469Z,16.50
2018-04-16T03:02:13.631Z,15.43
2018-04-16T03:04:46.989Z,18.10
2018-04-16T03:07:20.955Z,16.10
2018-04-16T03:09:54.178Z,16.10
2018-04-16T03:12:27.255Z,15.73
2018-04-16T03:15:00.617Z,16.50
2018-04-16T03:17:33.743Z,16.00
2018-04-16T03:20:07.013Z,15.93
2018-04-16T03:22:40.329Z,15.57
2018-04-16T03:25:13.433Z,16.33
2018-04-16T03:27:47.417Z,16.17
2018-04-16T03:30:20.747Z,16.27
2018-04-16T03:32:53.951Z,15.40
2018-04-16T03:35:27.927Z,15.63
2018-04-16T03:38:01.199Z,16.00
2018-04-16T03:40:34.441Z,17.33
2018-04-16T03:43:08.515Z,17.37
2018-04-16T03:45:41.727Z,16.17
2018-04-16T03:48:14.877Z,17.03
2018-04-16T03:50:48.075Z,17.73
2018-04-16T03:53:18.569Z,16.87
2018-04-16T03:56:03.514Z,15.40
2018-04-16T03:58:31.019Z,16.77
2018-04-16T04:00:58.517Z,16.70
2018-04-16T04:03:26.029Z,16.90
2018-04-16T04:05:54.301Z,16.50
2018-04-16T04:08:22.563Z,16.37
2018-04-16T04:10:50.056Z,16.30
2018-04-16T04:13:18.410Z,19.43
2018-04-16T04:15:45.978Z,16.33
2018-04-16T04:18:14.507Z,17.37
2018-04-16T04:20:42.049Z,16.87
2018-04-16T04:23:22.300Z,19.10
2018-04-16T04:26:03.174Z,16.40
2018-04-16T04:28:43.308Z,16.87
2018-04-16T04:31:10.887Z,15.47
2018-04-16T04:33:38.471Z,17.13
2018-04-16T04:36:06.052Z,17.63
2018-04-16T04:38:33.559Z,15.70
2018-04-16T04:41:01.067Z,16.70
2018-04-16T04:43:28.573Z,16.37
2018-04-16T04:45:56.074Z,16.30
2018-04-16T04:48:24.343Z,17.50
2018-04-16T04:50:52.641Z,16.33
2018-04-16T04:53:20.900Z,17.07
2018-04-16T04:55:48.527Z,18.67
2018-04-16T04:58:16.035Z,18.50
2018-04-16T05:00:44.307Z,17.00
2018-04-16T05:03:11.835Z,17.67
2018-04-16T05:05:39.356Z,17.83
2018-04-16T05:08:08.780Z,16.77
2018-04-16T05:10:36.419Z,18.63
2018-04-16T05:13:04.698Z,15.20
2018-04-16T05:15:32.976Z,15.97
2018-04-16T05:18:01.234Z,16.73
2018-04-16T05:20:28.747Z,16.57
2018-04-16T05:22:56.229Z,16.43
2018-04-16T05:25:23.771Z,18.13
2018-04-16T05:27:51.324Z,17.50
2018-04-16T05:30:19.648Z,19.50
2018-04-16T05:32:47.173Z,18.60
2018-04-16T05:35:15.421Z,18.10
2018-04-16T05:37:42.926Z,20.97
2018-04-16T05:40:10.425Z,20.70
2018-04-16T05:42:37.925Z,20.70
2018-04-16T05:45:05.427Z,20.73
2018-04-16T05:47:32.935Z,22.03
2018-04-16T05:50:00.453Z,20.83
2018-04-16T05:52:27.972Z,24.13
2018-04-16T05:54:56.391Z,24.07
2018-04-16T05:57:23.893Z,22.27
2018-04-16T05:59:51.548Z,20.97
2018-04-16T06:02:19.136Z,21.03
2018-04-16T06:04:47.394Z,22.17
2018-04-16T06:07:14.900Z,21.47
2018-04-16T06:09:43.165Z,20.63
2018-04-16T06:12:10.703Z,20.67
2018-04-16T06:14:38.201Z,23.33
2018-04-16T06:17:05.688Z,25.93
2018-04-16T06:19:33.940Z,23.00
2018-04-16T06:22:01.479Z,22.43
2018-04-16T06:24:28.977Z,22.80
2018-04-16T06:26:57.246Z,22.20
2018-04-16T06:29:24.769Z,21.60
2018-04-16T06:31:52.285Z,21.00
2018-04-16T06:34:20.611Z,20.60
2018-04-16T06:36:48.122Z,18.37
2018-04-16T06:39:15.632Z,18.50
2018-04-16T06:41:43.234Z,18.60
2018-04-16T06:44:11.536Z,18.27
2018-04-16T06:46:39.844Z,17.63
2018-04-16T06:49:07.368Z,17.63
2018-04-16T06:51:35.616Z,19.37
2018-04-16T06:54:03.116Z,18.93
2018-04-16T06:56:30.615Z,18.67
2018-04-16T06:58:58.895Z,19.87
2018-04-16T07:01:26.394Z,19.70
2018-04-16T07:03:53.918Z,19.47
2018-04-16T07:06:21.477Z,18.10
2018-04-16T07:08:49.036Z,20.77
2018-04-16T07:11:16.581Z,18.07
2018-04-16T07:13:44.097Z,17.10
2018-04-16T07:16:11.605Z,18.40
2018-04-16T07:18:39.170Z,16.90
2018-04-16T07:21:07.048Z,16.87
2018-04-16T07:23:34.568Z,17.63
2018-04-16T07:26:02.871Z,15.67
2018-04-16T07:28:30.378Z,15.73
2018-04-16T07:30:58.611Z,18.27
2018-04-16T07:33:26.739Z,17.73
2018-04-16T07:35:54.252Z,22.00
2018-04-16T07:38:21.768Z,18.37
2018-04-16T07:40:49.317Z,17.10
2018-04-16T07:43:17.687Z,18.50
2018-04-16T07:45:45.967Z,18.43
2018-04-16T07:48:14.249Z,17.03
2018-04-16T07:50:42.527Z,18.83
2018-04-16T07:53:10.820Z,18.27
2018-04-16T07:55:39.079Z,16.63
2018-04-16T07:58:06.587Z,17.80
2018-04-16T08:00:34.743Z,17.93
2018-04-16T08:03:03.027Z,17.47
2018-04-16T08:05:36.218Z,20.43
2018-04-16T08:08:04.494Z,18.17
2018-04-16T08:10:33.425Z,18.10
2018-04-16T08:13:00.979Z,17.97
2018-04-16T08:15:28.478Z,19.87
2018-04-16T08:17:56.040Z,18.67
2018-04-16T08:20:23.559Z,18.47
2018-04-16T08:22:51.851Z,20.40
2018-04-16T08:25:19.351Z,19.80
2018-04-16T08:27:46.981Z,19.70
2018-04-16T08:30:14.570Z,19.10
2018-04-16T08:32:42.084Z,18.87
2018-04-16T08:35:10.383Z,20.47
2018-04-16T08:37:38.111Z,19.57
2018-04-16T08:40:05.606Z,18.50
2018-04-16T08:42:34.611Z,20.70
2018-04-16T08:45:02.125Z,21.53
2018-04-16T08:47:29.625Z,24.00
2018-04-16T08:49:58.053Z,24.57
2018-04-16T08:52:25.585Z,26.77
2018-04-16T08:54:53.094Z,24.80
2018-04-16T08:57:20.593Z,24.67
2018-04-16T08:59:48.895Z,23.77
2018-04-16T09:02:16.406Z,22.33
2018-04-16T09:04:43.927Z,21.70
2018-04-16T09:07:11.432Z,21.43
2018-04-16T09:09:38.955Z,23.17
2018-04-16T09:12:06.440Z,19.93
2018-04-16T09:14:34.121Z,19.90
2018-04-16T09:17:01.701Z,19.80
2018-04-16T09:19:29.247Z,20.80
2018-04-16T09:21:56.751Z,19.73
2018-04-16T09:24:25.186Z,17.90
2018-04-16T09:26:52.723Z,19.70
2018-04-16T09:29:20.538Z,18.77
2018-04-16T09:31:48.047Z,18.80
2018-04-16T09:34:15.604Z,18.67
2018-04-16T09:36:43.882Z,19.83
2018-04-16T09:39:12.162Z,18.23
2018-04-16T09:41:40.478Z,19.10
2018-04-16T09:44:08.005Z,19.90
2018-04-16T09:46:36.307Z,18.90
2018-04-16T09:49:03.915Z,18.57
2018-04-16T09:51:31.421Z,19.40
2018-04-16T09:53:59.695Z,17.97
2018-04-16T09:56:27.976Z,21.27
2018-04-16T09:58:56.269Z,20.13
2018-04-16T10:01:25.788Z,18.27
2018-04-16T10:03:53.337Z,19.63
2018-04-16T10:06:21.595Z,19.40
2018-04-16T10:08:49.163Z,19.27
2018-04-16T10:11:16.915Z,18.60
2018-04-16T10:13:44.429Z,19.80
2018-04-16T10:16:11.976Z,18.17
2018-04-16T10:18:39.499Z,17.60
2018-04-16T10:21:07.023Z,18.23
2018-04-16T10:23:34.543Z,20.10
2018-04-16T10:26:02.811Z,19.30
2018-04-16T10:28:30.303Z,18.87
2018-04-16T10:30:58.588Z,17.90
2018-04-16T10:33:26.881Z,17.47
2018-04-16T10:35:54.431Z,20.17
2018-04-16T10:38:22.736Z,18.67
2018-04-16T10:40:50.265Z,20.57
2018-04-16T10:43:18.546Z,20.07
2018-04-16T10:45:46.049Z,18.80
2018-04-16T10:48:14.685Z,19.13
2018-04-16T10:50:42.443Z,22.13
2018-04-16T10:53:09.941Z,16.17
2018-04-16T10:55:37.490Z,24.87
2018-04-16T10:58:04.991Z,31.40
2018-04-16T11:00:32.517Z,35.90
2018-04-16T11:03:00.085Z,20.57
2018-04-16T11:05:27.629Z,36.23
2018-04-16T11:07:55.167Z,30.50
2018-04-16T11:10:22.672Z,19.30
2018-04-16T11:12:50.203Z,16.80
2018-04-16T11:15:17.706Z,17.20
2018-04-16T11:17:46.051Z,17.30
2018-04-16T11:20:13.654Z,23.83
2018-04-16T11:22:41.433Z,25.87
2018-04-16T11:25:09.701Z,17.00
2018-04-16T11:27:37.222Z,15.27
2018-04-16T11:30:04.747Z,15.80
2018-04-16T11:32:33.005Z,22.27
2018-04-16T11:35:00.519Z,28.23
2018-04-16T11:37:28.024Z,18.30
2018-04-16T11:39:55.690Z,15.70
2018-04-16T11:42:23.288Z,14.90
2018-04-16T11:44:50.821Z,16.03
2018-04-16T11:47:18.363Z,14.83
2018-04-16T11:49:45.914Z,14.60
2018-04-16T11:52:13.425Z,17.00
2018-04-16T11:54:43.115Z,16.80
2018-04-16T11:57:10.629Z,16.80
2018-04-16T11:59:38.199Z,15.60
2018-04-16T12:02:05.711Z,16.23
2018-04-16T12:04:33.789Z,14.70
2018-04-16T12:07:01.258Z,15.77
2018-04-16T12:09:28.766Z,15.70
2018-04-16T12:11:56.272Z,15.70
2018-04-16T12:14:24.001Z,15.33
2018-04-16T12:16:51.535Z,14.93
2018-04-16T12:19:19.801Z,12.37
2018-04-16T12:21:47.339Z,13.90
2018-04-16T12:24:14.979Z,14.77
2018-04-16T12:26:42.510Z,15.67
2018-04-16T12:29:10.850Z,17.40
2018-04-16T12:31:39.060Z,18.27
2018-04-16T12:34:07.390Z,17.40
2018-04-16T12:36:35.252Z,18.27
2018-04-16T12:39:02.761Z,17.70
2018-04-16T12:41:31.237Z,16.80
2018-04-16T12:43:58.798Z,16.10
2018-04-16T12:46:26.648Z,16.30
2018-04-16T12:48:59.971Z,16.87
2018-04-16T12:51:27.599Z,16.43
2018-04-16T12:53:56.516Z,17.10
2018-04-16T12:56:24.043Z,17.10
2018-04-16T12:58:51.589Z,15.63
2018-04-16T13:01:20.227Z,16.53
2018-04-16T13:03:48.486Z,16.40
2018-04-16T13:06:21.892Z,17.10
2018-04-16T13:08:49.746Z,16.03
2018-04-16T13:11:17.347Z,15.00
2018-04-16T13:13:44.891Z,14.90
2018-04-16T13:16:18.267Z,15.17
2018-04-16T13:18:52.497Z,15.13
2018-04-16T13:21:20.172Z,15.13
2018-04-16T13:23:53.727Z,14.60
2018-04-16T13:26:34.547Z,15.80
2018-04-16T13:29:02.077Z,14.43
2018-04-16T13:31:30.381Z,17.53
2018-04-16T13:33:57.937Z,16.23
2018-04-16T13:36:25.562Z,15.80
2018-04-16T13:38:58.579Z,17.00
2018-04-16T13:41:26.944Z,17.53
2018-04-16T13:44:00.581Z,17.00
2018-04-16T13:46:33.963Z,17.20
2018-04-16T13:49:02.251Z,16.30
2018-04-16T13:51:30.523Z,16.40
2018-04-16T13:53:58.809Z,16.87
2018-04-16T13:56:27.107Z,16.20
2018-04-16T13:58:54.723Z,15.57
2018-04-16T14:01:23.451Z,15.03
2018-04-16T14:03:51.059Z,15.97
2018-04-16T14:06:18.961Z,17.30
2018-04-16T14:08:46.545Z,17.10
2018-04-16T14:11:20.727Z,17.40
2018-04-16T14:13:48.331Z,17.63
2018-04-16T14:16:22.578Z,16.40
2018-04-16T14:19:02.663Z,16.53
2018-04-16T14:21:30.187Z,17.90
2018-04-16T14:24:03.614Z,18.53
2018-04-16T14:26:37.031Z,18.37
2018-04-16T14:29:05.481Z,19.27
2018-04-16T14:31:33.000Z,19.10
2018-04-16T14:34:02.063Z,20.70
2018-04-16T14:36:29.581Z,18.53
2018-04-16T14:39:08.472Z,19.80
2018-04-16T14:41:36.033Z,20.73
2018-04-16T14:44:04.330Z,20.30
2018-04-16T14:46:32.675Z,21.47
2018-04-16T14:49:05.861Z,19.97
2018-04-16T14:51:34.217Z,21.80
2018-04-16T14:54:01.813Z,22.27
2018-04-16T14:56:29.476Z,22.90
2018-04-16T14:58:56.992Z,24.47
2018-04-16T15:01:24.523Z,24.33
2018-04-16T15:03:57.907Z,25.57
2018-04-16T15:06:25.454Z,24.83
2018-04-16T15:08:52.953Z,24.40
2018-04-16T15:11:21.053Z,25.50
2018-04-16T15:13:50.154Z,25.20
2018-04-16T15:16:23.584Z,23.40
2018-04-16T15:18:51.891Z,21.70
2018-04-16T15:21:19.417Z,23.77
2018-04-16T15:23:47.311Z,22.57
2018-04-16T15:26:14.809Z,23.03
2018-04-16T15:28:42.320Z,24.60
2018-04-16T15:31:10.027Z,23.13
2018-04-16T15:33:37.532Z,25.40
2018-04-16T15:36:06.033Z,22.40
2018-04-16T15:38:33.598Z,25.13
2018-04-16T15:41:01.211Z,23.23
2018-04-16T15:43:28.870Z,23.17
2018-04-16T15:45:57.202Z,23.17
2018-04-16T15:48:24.780Z,22.10
2018-04-16T15:50:52.205Z,22.13
2018-04-16T15:53:20.476Z,22.57
2018-04-16T15:55:48.745Z,22.43
2018-04-16T15:58:16.263Z,21.70
2018-04-16T16:00:43.745Z,21.80
2018-04-16T16:03:11.332Z,22.70
2018-04-16T16:05:38.895Z,24.20
2018-04-16T16:08:06.373Z,23.47
2018-04-16T16:10:35.921Z,23.87
2018-04-16T16:13:03.613Z,22.83
2018-04-16T16:15:31.099Z,24.07
2018-04-16T16:18:09.379Z,21.97
2018-04-16T16:20:36.880Z,24.00
2018-04-16T16:23:05.155Z,23.77
2018-04-16T16:25:32.677Z,24.20
2018-04-16T16:28:00.243Z,22.83
2018-04-16T16:30:27.747Z,24.63
2018-04-16T16:32:55.286Z,24.90
2018-04-16T16:35:26.723Z,23.63
2018-04-16T16:37:55.568Z,23.80
2018-04-16T16:40:23.068Z,25.80
2018-04-16T16:42:50.636Z,24.13
2018-04-16T16:45:18.133Z,24.50
2018-04-16T16:47:45.679Z,23.67
2018-04-16T16:50:13.188Z,26.43
2018-04-16T16:52:41.459Z,27.10
2018-04-16T16:55:08.992Z,26.13
2018-04-16T16:57:36.478Z,24.63
2018-04-16T17:00:04.554Z,26.20
2018-04-16T17:02:32.186Z,25.47
2018-04-16T17:05:00.512Z,25.33
2018-04-16T17:07:27.992Z,27.13
2018-04-16T17:09:56.298Z,24.87
2018-04-16T17:12:23.837Z,24.90
2018-04-16T17:14:52.244Z,25.60
2018-04-16T17:17:19.763Z,24.40
2018-04-16T17:19:47.278Z,29.57
2018-04-16T17:22:15.358Z,25.13
2018-04-16T17:24:43.436Z,28.20
2018-04-16T17:27:10.992Z,26.63
2018-04-16T17:29:38.522Z,26.63
2018-04-16T17:32:06.803Z,24.63
2018-04-16T17:34:35.074Z,26.33
2018-04-16T17:37:02.592Z,26.50
2018-04-16T17:39:31.510Z,24.30
2018-04-16T17:41:59.195Z,25.40
2018-04-16T17:44:26.741Z,25.47
2018-04-16T17:46:54.252Z,27.40
2018-04-16T17:49:22.651Z,25.00
2018-04-16T17:51:50.185Z,26.03
2018-04-16T17:54:17.826Z,24.57
2018-04-16T17:56:45.401Z,24.80
2018-04-16T17:59:13.173Z,25.10
2018-04-16T18:01:42.317Z,24.77
2018-04-16T18:04:09.852Z,24.97
2018-04-16T18:06:38.241Z,25.47
2018-04-16T18:09:06.581Z,24.73
2018-04-16T18:11:34.768Z,24.87
2018-04-16T18:14:02.270Z,23.20
2018-04-16T18:16:31.831Z,25.33
2018-04-16T18:18:59.381Z,26.77
2018-04-16T18:21:26.876Z,24.33
2018-04-16T18:23:56.322Z,24.57
2018-04-16T18:26:23.957Z,26.63
2018-04-16T18:28:53.550Z,26.40
2018-04-16T18:31:22.045Z,26.87
2018-04-16T18:33:49.763Z,25.93
2018-04-16T18:36:17.398Z,24.70
2018-04-16T18:38:45.704Z,26.20
2018-04-16T18:41:13.206Z,29.47
2018-04-16T18:43:40.749Z,26.33
2018-04-16T18:46:08.277Z,28.30
2018-04-16T18:48:36.329Z,27.73
2018-04-16T18:51:03.933Z,26.50
2018-04-16T18:53:31.531Z,24.13
2018-04-16T18:56:01.088Z,26.00
2018-04-16T18:58:28.663Z,26.10
2018-04-16T19:00:58.221Z,25.43
2018-04-16T19:03:25.785Z,25.07
2018-04-16T19:05:53.292Z,25.80
2018-04-16T19:08:21.666Z,24.97
2018-04-16T19:10:50.959Z,25.73
2018-04-16T19:13:19.247Z,26.27
2018-04-16T19:15:46.906Z,24.37
2018-04-16T19:18:14.439Z,25.30
2018-04-16T19:21:01.340Z,25.73
2018-04-16T19:23:29.220Z,26.13
2018-04-16T19:25:57.258Z,25.00
2018-04-16T19:28:24.818Z,24.70
2018-04-16T19:30:53.836Z,25.27
2018-04-16T19:33:29.027Z,25.13
2018-04-16T19:35:57.448Z,25.40
2018-04-16T19:38:25.185Z,25.60
2018-04-16T19:40:52.720Z,25.30
2018-04-16T19:43:20.234Z,23.83
2018-04-16T19:45:48.576Z,24.13
2018-04-16T19:48:16.273Z,25.57
2018-04-16T19:50:44.591Z,23.60
2018-04-16T19:53:12.125Z,22.40
2018-04-16T19:55:46.189Z,23.47
2018-04-16T19:58:19.506Z,23.77
2018-04-16T20:00:47.991Z,24.27
2018-04-16T20:03:22.325Z,23.93
2018-04-16T20:05:50.839Z,22.10
2018-04-16T20:08:19.945Z,23.10
2018-04-16T20:10:47.492Z,23.27
2018-04-16T20:13:15.174Z,24.13
2018-04-16T20:15:42.741Z,24.17
2018-04-16T20:18:10.240Z,23.03
2018-04-16T20:20:37.886Z,24.53
2018-04-16T20:23:06.361Z,22.57
2018-04-16T20:25:33.992Z,23.23
2018-04-16T20:28:02.256Z,24.60
2018-04-16T20:30:29.827Z,23.40
2018-04-16T20:32:57.371Z,23.20
2018-04-16T20:35:24.909Z,24.00
2018-04-16T20:37:52.642Z,23.90
2018-04-16T20:40:20.188Z,23.40
2018-04-16T20:42:47.689Z,25.27
2018-04-16T20:45:15.605Z,25.13
2018-04-16T20:47:45.328Z,25.30
2018-04-16T20:50:14.559Z,24.77
2018-04-16T20:52:42.067Z,25.73
2018-04-16T20:55:09.700Z,24.87
2018-04-16T20:57:37.209Z,24.50
2018-04-16T21:00:05.253Z,23.53
2018-04-16T21:02:32.863Z,26.63
2018-04-16T21:05:01.136Z,26.33
2018-04-16T21:07:28.679Z,26.60
2018-04-16T21:09:56.271Z,25.60
2018-04-16T21:12:25.285Z,28.50
2018-04-16T21:14:53.609Z,26.80
2018-04-16T21:17:21.099Z,26.03
2018-04-16T21:19:48.651Z,28.80
2018-04-16T21:22:16.195Z,28.20
2018-04-16T21:24:43.862Z,29.73
2018-04-16T21:27:11.364Z,27.80
2018-04-16T21:29:39.633Z,26.70
2018-04-16T21:32:07.225Z,31.70
2018-04-16T21:34:34.734Z,27.10
2018-04-16T21:37:02.264Z,28.70
2018-04-16T21:39:30.590Z,28.93
2018-04-16T21:41:58.098Z,26.87
2018-04-16T21:44:26.322Z,32.50
2018-04-16T21:46:53.836Z,28.10
2018-04-16T21:49:21.402Z,28.30
2018-04-16T21:51:48.934Z,28.77
2018-04-16T21:54:16.446Z,28.40
2018-04-16T21:56:44.711Z,29.50
2018-04-16T21:59:12.409Z,29.60
2018-04-16T22:01:39.912Z,29.37
2018-04-16T22:04:07.416Z,28.57
2018-04-16T22:06:35.684Z,29.47
2018-04-16T22:09:03.426Z,29.60
2018-04-16T22:11:30.982Z,29.53
2018-04-16T22:13:59.444Z,28.63
2018-04-16T22:16:26.976Z,28.10
2018-04-16T22:18:55.250Z,26.80
2018-04-16T22:21:22.740Z,30.30
2018-04-16T22:23:50.281Z,26.83
2018-04-16T22:26:17.874Z,28.67
2018-04-16T22:28:45.488Z,29.00
2018-04-16T22:31:13.018Z,29.17
2018-04-16T22:33:40.720Z,27.13
2018-04-16T22:36:08.251Z,28.80
2018-04-16T22:38:35.758Z,27.17
2018-04-16T22:41:03.279Z,27.77
2018-04-16T22:43:30.786Z,30.20
2018-04-16T22:45:58.385Z,28.10
2018-04-16T22:48:25.973Z,30.13
2018-04-16T22:50:53.481Z,30.57
2018-04-16T22:53:20.994Z,29.97
2018-04-16T22:55:48.483Z,29.53
2018-04-16T22:58:15.963Z,29.40
2018-04-16T23:00:43.535Z,28.50
2018-04-16T23:03:11.159Z,28.30
2018-04-16T23:05:38.674Z,26.87
2018-04-16T23:08:06.927Z,28.20
2018-04-16T23:10:34.451Z,28.33
2018-04-16T23:13:01.965Z,28.00
2018-04-16T23:15:30.273Z,28.20
2018-04-16T23:17:58.549Z,27.97
2018-04-16T23:20:26.813Z,28.17
2018-04-16T23:22:54.323Z,29.87
2018-04-16T23:25:21.874Z,29.10
2018-04-16T23:27:49.367Z,27.03
2018-04-16T23:30:16.891Z,30.37
2018-04-16T23:32:45.181Z,28.60
2018-04-16T23:35:12.687Z,27.27
2018-04-16T23:37:40.164Z,26.50
2018-04-16T23:40:09.177Z,23.57
2018-04-16T23:42:37.076Z,25.27
2018-04-16T23:45:04.563Z,24.10
2018-04-16T23:47:32.059Z,26.70
2018-04-16T23:49:59.967Z,25.00
2018-04-16T23:52:28.227Z,25.00
2018-04-16T23:54:55.707Z,25.10
2018-04-16T23:57:23.976Z,24.83
2018-04-16T23:59:51.469Z,25.50
